Time;durP1;ratioP1;P1;durP2;ratioP2;P2;SDS_P1;SDS_P2;PMS_P1;PMS_P2;Temp;Humidity;BMP_temperature;BMP_pressure;BME280_temperature;BME280_humidity;BME280_pressure;Samples;Min_cycle;Max_cycle;Signal;HPM_P1;HPM_P2
2023/04/11 00:01:23;;;;;;;12.83;2.67;;;7.50;99.90;;;;;;5073704;28;20024;-78
2023/04/11 00:03:49;;;;;;;23.80;3.00;;;7.50;99.90;;;;;;5073636;28;20059;-79
2023/04/11 00:06:15;;;;;;;14.20;3.00;;;7.50;99.90;;;;;;5074446;28;20025;-79
2023/04/11 00:08:43;;;;;;;13.47;2.00;;;7.50;99.90;;;;;;5075113;28;20023;-77
2023/04/11 00:11:09;;;;;;;18.08;2.42;;;7.40;99.90;;;;;;5074795;28;20024;-78
2023/04/11 00:13:36;;;;;;;20.67;1.97;;;7.40;99.90;;;;;;5075159;28;20474;-79
2023/04/11 00:16:02;;;;;;;;;;;7.50;99.90;;;;;;5074063;28;20028;-79
2023/04/11 00:18:28;;;;;;;15.32;2.70;;;7.50;99.90;;;;;;5063949;28;19931;-79
2023/04/11 00:20:54;;;;;;;17.30;2.33;;;7.60;99.90;;;;;;5075080;28;20025;-78
2023/04/11 00:23:19;;;;;;;18.13;2.37;;;7.60;99.90;;;;;;5074513;28;20028;-78
2023/04/11 00:25:45;;;;;;;18.90;2.47;;;7.70;99.90;;;;;;5074013;28;20028;-79
2023/04/11 00:28:11;;;;;;;20.03;2.30;;;7.70;99.90;;;;;;5075064;28;20119;-78
2023/04/11 00:30:37;;;;;;;8.03;1.53;;;7.70;99.90;;;;;;5075026;28;20037;-78
2023/04/11 00:33:03;;;;;;;13.75;2.47;;;7.80;99.90;;;;;;5074359;28;20024;-79
2023/04/11 00:35:33;;;;;;;15.67;2.43;;;7.70;99.90;;;;;;5073834;28;20083;-80
2023/04/11 00:38:00;;;;;;;11.85;2.53;;;7.70;99.90;;;;;;5073283;28;20437;-78
2023/04/11 00:40:25;;;;;;;13.90;1.85;;;7.70;99.90;;;;;;5073822;28;20055;-78
2023/04/11 00:42:51;;;;;;;12.33;1.67;;;7.70;99.90;;;;;;5073514;28;20078;-76
2023/04/11 00:45:17;;;;;;;13.30;1.80;;;7.60;99.90;;;;;;5073403;28;20028;-79
2023/04/11 00:47:43;;;;;;;13.07;2.23;;;7.60;99.90;;;;;;5075238;28;20155;-78
2023/04/11 00:50:12;;;;;;;10.37;2.27;;;7.60;99.90;;;;;;5074307;28;20486;-78
2023/04/11 00:52:39;;;;;;;14.05;2.33;;;7.60;99.90;;;;;;5073549;28;20024;-78
2023/04/11 00:55:06;;;;;;;10.27;2.45;;;7.60;99.90;;;;;;5074265;28;20028;-78
2023/04/11 00:57:32;;;;;;;;;;;7.60;99.90;;;;;;5075186;28;20031;-78
2023/04/11 00:59:59;;;;;;;11.77;2.38;;;7.60;99.90;;;;;;5074770;28;19905;-78
2023/04/11 01:02:25;;;;;;;;;;;7.60;99.90;;;;;;5061002;28;20028;-80
2023/04/11 01:04:52;;;;;;;12.05;2.00;;;7.60;99.90;;;;;;5074483;28;19904;-77
2023/04/11 01:07:19;;;;;;;16.08;1.77;;;7.60;99.90;;;;;;5073259;28;20337;-78
2023/04/11 01:09:44;;;;;;;;;;;7.60;99.90;;;;;;5073847;28;20430;-78
2023/04/11 01:12:13;;;;;;;10.90;1.73;;;7.60;99.90;;;;;;5073187;28;20046;-78
2023/04/11 01:14:40;;;;;;;18.20;1.75;;;7.50;99.90;;;;;;5077765;28;20455;-77
2023/04/11 01:17:06;;;;;;;12.05;1.95;;;7.50;99.90;;;;;;5076941;28;20068;-77
2023/04/11 01:19:33;;;;;;;9.55;1.67;;;7.60;99.90;;;;;;5077359;28;20021;-69
2023/04/11 01:22:00;;;;;;;13.73;2.00;;;7.70;99.90;;;;;;5078483;28;20034;-76
2023/04/11 01:24:27;;;;;;;5.88;1.35;;;7.70;99.90;;;;;;5076909;28;20363;-75
2023/04/11 01:26:53;;;;;;;9.43;1.88;;;7.80;99.90;;;;;;5078502;28;20032;-72
2023/04/11 01:29:19;;;;;;;7.63;1.55;;;7.80;99.90;;;;;;5076469;28;20052;-78
2023/04/11 01:31:45;;;;;;;16.93;1.47;;;7.90;99.90;;;;;;5077185;28;20382;-72
2023/04/11 01:34:13;;;;;;;9.47;1.17;;;7.80;99.90;;;;;;5077676;28;20113;-78
2023/04/11 01:36:40;;;;;;;10.05;1.23;;;7.80;99.90;;;;;;5077106;28;20103;-79
2023/04/11 01:39:05;;;;;;;;;;;7.80;99.90;;;;;;5077327;28;20301;-79
2023/04/11 01:41:33;;;;;;;8.60;1.67;;;7.80;99.90;;;;;;5076651;28;19953;-70
2023/04/11 01:44:00;;;;;;;10.30;1.35;;;7.70;99.90;;;;;;5077934;28;20111;-77
2023/04/11 01:46:25;;;;;;;6.38;1.17;;;7.80;99.90;;;;;;5077465;28;20023;-77
2023/04/11 01:48:54;;;;;;;9.07;1.53;;;7.80;99.90;;;;;;5077917;28;20099;-77
2023/04/11 01:51:20;;;;;;;7.85;1.60;;;7.80;99.90;;;;;;5077434;28;20024;-77
2023/04/11 01:53:46;;;;;;;6.30;1.47;;;7.70;99.90;;;;;;5077886;28;20357;-75
2023/04/11 01:56:12;;;;;;;13.13;1.67;;;7.80;99.90;;;;;;5076841;28;20024;-71
2023/04/11 01:58:38;;;;;;;11.30;1.80;;;7.80;99.90;;;;;;5077523;28;20308;-79
2023/04/11 02:01:04;;;;;;;7.93;1.03;;;7.80;99.90;;;;;;5077455;28;20033;-73
2023/04/11 02:03:30;;;;;;;6.33;1.43;;;7.90;99.90;;;;;;5076036;28;20017;-79
2023/04/11 02:05:56;;;;;;;8.27;1.20;;;7.90;99.90;;;;;;5077905;28;20300;-76
2023/04/11 02:08:22;;;;;;;8.57;1.87;;;8.00;99.90;;;;;;5077188;28;20021;-72
2023/04/11 02:10:48;;;;;;;16.63;2.10;;;8.00;99.90;;;;;;5077449;28;20021;-81
2023/04/11 02:13:13;;;;;;;10.63;1.53;;;8.00;99.90;;;;;;5077578;28;20566;-77
2023/04/11 02:15:39;;;;;;;9.93;1.57;;;8.00;99.90;;;;;;5077106;28;20024;-79
2023/04/11 02:18:05;;;;;;;10.60;1.93;;;8.10;99.90;;;;;;5077717;28;20095;-71
2023/04/11 02:20:31;;;;;;;12.27;2.08;;;8.00;99.90;;;;;;5075730;28;20176;-77
2023/04/11 02:22:57;;;;;;;13.23;1.38;;;8.00;99.90;;;;;;5077527;28;20028;-68
2023/04/11 02:25:23;;;;;;;11.83;1.27;;;8.00;99.90;;;;;;5076161;28;20115;-82
2023/04/11 02:27:49;;;;;;;15.90;1.57;;;8.10;99.90;;;;;;5077104;28;20356;-80
2023/04/11 02:30:15;;;;;;;8.63;1.60;;;8.20;99.90;;;;;;5077135;28;20107;-81
2023/04/11 02:32:40;;;;;;;15.57;1.53;;;8.20;99.90;;;;;;5075886;28;20032;-78
2023/04/11 02:35:06;;;;;;;11.00;1.93;;;8.20;99.90;;;;;;5077063;28;20463;-77
2023/04/11 02:37:33;;;;;;;7.38;0.98;;;8.20;99.90;;;;;;5076771;28;20513;-81
2023/04/11 02:40:00;;;;;;;;;;;8.10;99.90;;;;;;5077419;28;20104;-79
2023/04/11 02:42:26;;;;;;;8.95;1.17;;;8.20;99.90;;;;;;5076862;28;19970;-80
2023/04/11 02:44:55;;;;;;;10.57;1.90;;;8.20;99.90;;;;;;5075422;28;20020;-78
2023/04/11 02:47:21;;;;;;;6.00;1.50;;;8.20;99.90;;;;;;5076807;28;20297;-81
2023/04/11 02:49:46;;;;;;;12.83;1.57;;;8.20;99.90;;;;;;5076393;28;20101;-77
2023/04/11 02:52:12;;;;;;;3.93;1.20;;;8.20;99.90;;;;;;5075655;28;20479;-78
2023/04/11 02:54:38;;;;;;;14.77;1.40;;;8.10;99.90;;;;;;5075178;28;20036;-78
2023/04/11 02:57:03;;;;;;;14.57;1.70;;;8.10;99.90;;;;;;5075610;28;20027;-78
2023/04/11 02:59:29;;;;;;;15.67;2.13;;;8.00;99.90;;;;;;5076522;28;20082;-65
2023/04/11 03:01:59;;;;;;;18.73;1.90;;;8.00;99.90;;;;;;5076268;28;20095;-79
2023/04/11 03:04:25;;;;;;;11.63;1.33;;;8.10;99.90;;;;;;5075204;28;20029;-75
2023/04/11 03:06:51;;;;;;;12.57;2.00;;;8.10;99.90;;;;;;5076079;28;20407;-77
2023/04/11 03:09:17;;;;;;;10.40;2.00;;;8.00;99.90;;;;;;5076364;28;20033;-78
2023/04/11 03:11:43;;;;;;;7.13;1.80;;;8.10;99.90;;;;;;5075838;28;20025;-79
2023/04/11 03:14:08;;;;;;;7.57;1.13;;;8.00;99.90;;;;;;5076224;28;20105;-75
2023/04/11 03:16:34;;;;;;;8.63;1.33;;;8.00;99.90;;;;;;5075225;28;20021;-78
2023/04/11 03:19:00;;;;;;;8.97;1.13;;;8.00;99.90;;;;;;5075827;28;20017;-76
2023/04/11 03:21:26;;;;;;;10.07;1.70;;;8.00;99.90;;;;;;5076458;28;20032;-79
2023/04/11 03:23:52;;;;;;;11.13;1.33;;;8.10;99.90;;;;;;5074593;28;20023;-72
2023/04/11 03:26:18;;;;;;;6.32;1.27;;;8.10;99.90;;;;;;5076096;28;20017;-81
2023/04/11 03:28:44;;;;;;;12.00;1.43;;;8.10;99.90;;;;;;5074725;28;20041;-75
2023/04/11 03:31:11;;;;;;;6.50;1.77;;;8.10;99.90;;;;;;5076006;28;20024;-74
2023/04/11 03:33:38;;;;;;;5.90;1.13;;;8.10;99.90;;;;;;5074920;28;20323;-75
2023/04/11 03:36:04;;;;;;;4.15;1.33;;;8.10;99.90;;;;;;5075121;28;20097;-75
2023/04/11 03:38:30;;;;;;;8.02;1.40;;;8.10;99.90;;;;;;5074451;28;20331;-70
2023/04/11 03:40:56;;;;;;;12.77;1.20;;;8.10;99.90;;;;;;5075586;28;20025;-72
2023/04/11 03:43:22;;;;;;;2.13;0.77;;;8.20;99.90;;;;;;5075765;28;20096;-75
2023/04/11 03:45:47;;;;;;;7.87;1.07;;;8.20;99.90;;;;;;5074554;28;20411;-71
2023/04/11 03:48:13;;;;;;;5.97;1.00;;;8.30;99.90;;;;;;5075548;28;20020;-71
2023/04/11 03:50:39;;;;;;;5.10;1.67;;;8.20;99.90;;;;;;5074347;28;20028;-72
2023/04/11 03:53:06;;;;;;;11.60;1.23;;;8.20;99.90;;;;;;5073965;28;20387;-66
2023/04/11 03:55:31;;;;;;;5.20;1.35;;;8.20;99.90;;;;;;5075245;28;20137;-81
2023/04/11 03:57:57;;;;;;;11.10;1.93;;;8.10;99.90;;;;;;5075095;28;20033;-76
2023/04/11 04:00:23;;;;;;;6.50;1.10;;;8.10;99.90;;;;;;5075835;28;20024;-77
2023/04/11 04:02:48;;;;;;;10.13;1.40;;;8.10;99.90;;;;;;5075297;28;20311;-78
2023/04/11 04:05:14;;;;;;;13.53;1.47;;;8.00;99.90;;;;;;5074918;28;20032;-72
2023/04/11 04:07:40;;;;;;;17.57;1.97;;;8.00;99.90;;;;;;5075503;28;20033;-69
2023/04/11 04:10:06;;;;;;;5.80;1.40;;;8.00;99.90;;;;;;5074791;28;20119;-79
2023/04/11 04:12:32;;;;;;;8.30;1.02;;;8.00;99.90;;;;;;5075131;28;20028;-71
2023/04/11 04:14:58;;;;;;;5.07;1.75;;;7.90;99.90;;;;;;5073685;28;20037;-77
2023/04/11 04:17:24;;;;;;;7.90;1.27;;;7.80;99.90;;;;;;5073994;28;20314;-76
2023/04/11 04:19:50;;;;;;;9.87;1.73;;;7.70;99.90;;;;;;5074219;28;20261;-80
2023/04/11 04:22:16;;;;;;;13.77;1.65;;;7.70;99.90;;;;;;5074594;28;20013;-68
2023/04/11 04:24:44;;;;;;;7.93;1.67;;;7.60;99.90;;;;;;5075258;28;20028;-77
2023/04/11 04:27:12;;;;;;;4.50;1.10;;;7.50;99.90;;;;;;5074759;28;20103;-66
2023/04/11 04:29:45;;;;;;;4.40;1.00;;;7.50;99.90;;;;;;5074698;28;20601;-67
2023/04/11 04:32:19;;;;;;;5.22;1.23;;;7.40;99.90;;;;;;5075097;28;20315;-74
2023/04/11 04:34:48;;;;;;;14.18;1.13;;;7.40;99.90;;;;;;5073520;28;20029;-66
2023/04/11 04:37:20;;;;;;;7.45;1.38;;;7.40;99.90;;;;;;5075164;28;20307;-73
2023/04/11 04:39:52;;;;;;;10.07;1.42;;;7.40;99.90;;;;;;5073463;28;20028;-79
2023/04/11 04:42:20;;;;;;;6.78;1.65;;;7.30;99.90;;;;;;5074801;28;20024;-80
2023/04/11 04:44:46;;;;;;;10.02;1.20;;;7.30;99.90;;;;;;5074814;28;20048;-68
2023/04/11 04:47:12;;;;;;;10.83;1.70;;;7.30;99.90;;;;;;5073650;28;20465;-78
2023/04/11 04:49:37;;;;;;;5.67;1.60;;;7.30;99.90;;;;;;5074522;28;20032;-76
2023/04/11 04:52:04;;;;;;;6.73;1.53;;;7.20;99.90;;;;;;5074713;28;20420;-78
2023/04/11 04:54:30;;;;;;;10.00;1.38;;;7.20;99.90;;;;;;5074610;28;20024;-79
2023/04/11 04:56:56;;;;;;;2.90;1.08;;;7.20;99.90;;;;;;5073185;28;20392;-70
2023/04/11 04:59:21;;;;;;;4.07;1.33;;;7.20;99.90;;;;;;5075022;28;20044;-82
2023/04/11 05:01:50;;;;;;;7.00;1.23;;;7.20;99.90;;;;;;5073092;28;20112;-72
2023/04/11 05:04:16;;;;;;;11.30;1.38;;;7.20;99.90;;;;;;5074769;28;20017;-75
2023/04/11 05:06:41;;;;;;;5.00;1.73;;;7.20;99.90;;;;;;5074246;28;20154;-71
2023/04/11 05:09:07;;;;;;;10.03;1.27;;;7.20;99.90;;;;;;5074815;28;20442;-77
2023/04/11 05:11:33;;;;;;;5.93;1.10;;;7.20;99.90;;;;;;5074432;28;20090;-77
2023/04/11 05:13:59;;;;;;;9.73;1.97;;;7.20;99.90;;;;;;5074620;28;20109;-64
2023/04/11 05:16:25;;;;;;;12.30;2.30;;;7.20;99.90;;;;;;5074449;28;20048;-77
2023/04/11 05:18:51;;;;;;;7.43;1.50;;;7.20;99.90;;;;;;5073088;28;20098;-75
2023/04/11 05:21:16;;;;;;;12.60;1.40;;;7.20;99.90;;;;;;5074694;28;20064;-73
2023/04/11 05:23:42;;;;;;;7.33;1.20;;;7.20;99.90;;;;;;5073249;28;20024;-68
2023/04/11 05:26:10;;;;;;;7.40;1.70;;;7.20;99.90;;;;;;5074229;28;20032;-72
2023/04/11 05:28:36;;;;;;;8.63;1.88;;;7.20;99.90;;;;;;5074342;28;20045;-76
2023/04/11 05:31:02;;;;;;;9.02;1.45;;;7.20;99.90;;;;;;5073992;28;20024;-75
2023/04/11 05:33:28;;;;;;;10.37;1.07;;;7.20;99.90;;;;;;5074438;28;20033;-75
2023/04/11 05:35:54;;;;;;;10.85;1.80;;;7.20;99.90;;;;;;5073965;28;20037;-78
2023/04/11 05:38:20;;;;;;;5.17;1.50;;;7.20;99.90;;;;;;5073232;28;20074;-77
2023/04/11 05:40:46;;;;;;;4.15;1.73;;;7.20;99.90;;;;;;5074444;28;20316;-74
2023/04/11 05:43:13;;;;;;;8.13;1.40;;;7.30;99.90;;;;;;5074104;28;20075;-77
2023/04/11 05:45:46;;;;;;;4.97;1.30;;;7.30;99.90;;;;;;5074354;28;20028;-78
2023/04/11 05:48:13;;;;;;;10.07;1.58;;;7.40;99.90;;;;;;5073887;28;20038;-79
2023/04/11 05:50:39;;;;;;;8.75;1.20;;;7.30;99.90;;;;;;5073021;28;20416;-78
2023/04/11 05:53:06;;;;;;;9.15;1.40;;;7.30;99.90;;;;;;5072647;28;20035;-76
2023/04/11 05:55:31;;;;;;;6.80;1.13;;;7.30;99.90;;;;;;5073068;28;20489;-77
2023/04/11 05:57:57;;;;;;;10.27;1.43;;;7.40;99.90;;;;;;5073752;28;20357;-78
2023/04/11 06:00:24;;;;;;;11.80;2.03;;;7.40;99.90;;;;;;5075464;28;20028;-77
2023/04/11 06:02:51;;;;;;;11.25;1.40;;;7.40;99.90;;;;;;5076439;28;20415;-79
2023/04/11 06:05:17;;;;;;;;;;;7.50;99.90;;;;;;5076617;28;20036;-74
2023/04/11 06:07:44;;;;;;;9.88;1.27;;;7.60;99.90;;;;;;5077510;28;19916;-75
2023/04/11 06:10:10;;;;;;;5.18;0.98;;;7.70;99.90;;;;;;5077203;28;20025;-77
2023/04/11 06:12:36;;;;;;;4.20;1.10;;;7.80;99.90;;;;;;5076335;28;20029;-79
2023/04/11 06:15:02;;;;;;;8.37;1.57;;;7.80;99.90;;;;;;5077309;28;20021;-74
2023/04/11 06:17:28;;;;;;;13.85;1.90;;;7.80;99.90;;;;;;5077408;28;20013;-77
2023/04/11 06:19:54;;;;;;;8.47;1.10;;;7.90;99.90;;;;;;5077507;28;20056;-73
2023/04/11 06:22:19;;;;;;;6.57;1.73;;;7.90;99.90;;;;;;5076834;28;20320;-76
2023/04/11 06:24:45;;;;;;;17.63;1.87;;;8.00;99.90;;;;;;5076158;28;20033;-69
2023/04/11 06:27:11;;;;;;;12.98;1.83;;;8.10;99.90;;;;;;5077411;28;20024;-71
2023/04/11 06:29:37;;;;;;;17.63;2.33;;;8.20;99.90;;;;;;5076811;28;20369;-76
2023/04/11 06:32:03;;;;;;;10.60;1.42;;;8.20;99.90;;;;;;5077263;28;20039;-65
2023/04/11 06:34:29;;;;;;;10.40;1.63;;;8.30;99.90;;;;;;5077013;28;20307;-78
2023/04/11 06:36:55;;;;;;;13.33;1.87;;;8.30;99.90;;;;;;5076999;28;20475;-73
2023/04/11 06:39:21;;;;;;;10.03;1.20;;;8.40;99.90;;;;;;5076714;28;20059;-76
2023/04/11 06:41:47;;;;;;;8.87;1.80;;;8.50;99.90;;;;;;5075812;28;20021;-73
2023/04/11 06:44:13;;;;;;;14.68;1.90;;;8.60;99.90;;;;;;5076936;28;20056;-73
2023/04/11 06:46:39;;;;;;;12.90;1.97;;;8.80;99.90;;;;;;5075447;28;20031;-84
2023/04/11 06:49:08;;;;;;;16.20;2.27;;;9.10;99.90;;;;;;5077100;28;20258;-81
2023/04/11 06:51:34;;;;;;;10.07;2.03;;;9.30;99.90;;;;;;5076327;28;20033;-73
2023/04/11 06:54:01;;;;;;;7.25;1.30;;;9.50;99.90;;;;;;5076777;28;20027;-74
2023/04/11 06:56:27;;;;;;;7.13;1.58;;;9.60;99.90;;;;;;5076147;28;20067;-74
2023/04/11 06:58:52;;;;;;;12.27;1.90;;;9.70;99.90;;;;;;5076672;28;20020;-77
2023/04/11 07:01:19;;;;;;;4.93;1.73;;;9.60;99.90;;;;;;5076825;28;20028;-67
2023/04/11 07:03:48;;;;;;;17.00;2.58;;;9.60;99.90;;;;;;5074983;28;20095;-68
2023/04/11 07:06:14;;;;;;;6.93;1.58;;;10.10;99.90;;;;;;5076453;28;20025;-66
2023/04/11 07:08:40;;;;;;;9.93;1.97;;;10.50;99.90;;;;;;5074944;28;20035;-72
2023/04/11 07:11:06;;;;;;;6.93;2.20;;;11.00;99.90;;;;;;5074891;28;20028;-70
2023/04/11 07:13:32;;;;;;;15.73;1.70;;;11.10;99.90;;;;;;5074928;28;20383;-64
2023/04/11 07:15:58;;;;;;;7.53;2.27;;;11.30;99.90;;;;;;5075006;28;20029;-64
2023/04/11 07:18:26;;;;;;;8.10;1.60;;;11.50;99.90;;;;;;5076145;28;20031;-75
2023/04/11 07:20:51;;;;;;;8.38;1.45;;;11.20;99.90;;;;;;5074971;28;20433;-73
2023/04/11 07:23:17;;;;;;;9.17;2.03;;;11.30;99.90;;;;;;5076389;28;20028;-76
2023/04/11 07:25:43;;;;;;;15.57;1.87;;;11.70;99.90;;;;;;5074449;28;20090;-77
2023/04/11 07:28:10;;;;;;;9.10;1.50;;;12.00;99.90;;;;;;5074736;28;20399;-68
2023/04/11 07:30:36;;;;;;;14.52;1.77;;;12.00;99.90;;;;;;5075853;28;20269;-75
2023/04/11 07:33:02;;;;;;;14.20;2.77;;;11.90;99.90;;;;;;5075826;28;20085;-77
2023/04/11 07:35:29;;;;;;;7.47;1.50;;;11.70;99.90;;;;;;5075930;28;20077;-77
2023/04/11 07:37:56;;;;;;;8.35;1.85;;;11.70;99.90;;;;;;5074399;28;20054;-76
2023/04/11 07:40:22;;;;;;;14.45;1.98;;;11.30;99.90;;;;;;5075866;28;20024;-74
2023/04/11 07:42:47;;;;;;;4.63;1.37;;;10.90;99.90;;;;;;5075537;28;20036;-73
2023/04/11 07:45:13;;;;;;;6.83;1.53;;;10.80;99.90;;;;;;5075846;28;20036;-73
2023/04/11 07:47:39;;;;;;;13.17;1.67;;;11.10;99.90;;;;;;5074625;28;20029;-72
2023/04/11 07:50:06;;;;;;;8.83;1.93;;;11.20;99.90;;;;;;5075267;28;20111;-79
2023/04/11 07:52:32;;;;;;;6.80;1.63;;;11.10;99.90;;;;;;5075531;28;20035;-68
2023/04/11 07:54:57;;;;;;;5.37;1.50;;;11.30;99.90;;;;;;5075206;28;20036;-74
2023/04/11 07:57:23;;;;;;;8.93;1.50;;;11.70;99.90;;;;;;5074302;28;20257;-67
2023/04/11 07:59:49;;;;;;;9.23;1.43;;;11.80;99.90;;;;;;5073988;28;20422;-75
2023/04/11 08:02:15;;;;;;;7.27;1.53;;;11.80;99.90;;;;;;5075501;28;20027;-79
2023/04/11 08:04:41;;;;;;;5.93;1.40;;;11.80;99.90;;;;;;5075575;28;20036;-78
2023/04/11 08:07:06;;;;;;;8.80;1.80;;;11.80;99.90;;;;;;5075156;28;20027;-73
2023/04/11 08:09:33;;;;;;;4.03;1.23;;;12.10;99.90;;;;;;5075394;28;20029;-69
2023/04/11 08:12:00;;;;;;;9.00;1.52;;;11.90;99.90;;;;;;5074962;28;20322;-80
2023/04/11 08:14:26;;;;;;;7.35;1.73;;;11.90;99.90;;;;;;5075174;28;20473;-82
2023/04/11 08:16:52;;;;;;;10.88;1.58;;;11.80;99.90;;;;;;5073658;28;20078;-76
2023/04/11 08:19:18;;;;;;;8.97;1.17;;;11.50;99.90;;;;;;5075137;28;20032;-73
2023/04/11 08:21:44;;;;;;;9.77;1.30;;;11.10;99.90;;;;;;5075160;28;20069;-69
2023/04/11 08:24:09;;;;;;;9.07;1.67;;;11.00;99.90;;;;;;5073999;28;20319;-71
2023/04/11 08:26:35;;;;;;;11.00;1.77;;;11.10;99.90;;;;;;5075067;28;20362;-77
2023/04/11 08:29:02;;;;;;;10.43;1.60;;;11.50;99.90;;;;;;5074976;28;20128;-74
2023/04/11 08:31:27;;;;;;;4.07;0.68;;;11.60;99.90;;;;;;5075280;28;20319;-79
2023/04/11 08:33:53;;;;;;;6.63;2.13;;;11.20;99.90;;;;;;5075048;28;20036;-79
2023/04/11 08:36:19;;;;;;;12.03;1.87;;;10.90;99.90;;;;;;5074640;28;20048;-65
2023/04/11 08:38:45;;;;;;;6.87;1.07;;;10.80;99.90;;;;;;5073833;28;20464;-66
2023/04/11 08:41:11;;;;;;;6.90;1.70;;;10.70;99.90;;;;;;5074765;28;20111;-65
2023/04/11 08:43:39;;;;;;;13.02;1.60;;;10.50;99.90;;;;;;5074997;28;20034;-75
2023/04/11 08:46:10;;;;;;;7.30;1.55;;;10.30;99.90;;;;;;5073390;28;20036;-76
2023/04/11 08:48:37;;;;;;;12.43;1.65;;;10.60;99.90;;;;;;5074951;28;20315;-66
2023/04/11 08:51:03;;;;;;;9.15;1.70;;;10.70;99.90;;;;;;5072418;28;20024;-72
2023/04/11 08:53:30;;;;;;;10.00;1.55;;;10.90;99.90;;;;;;5072831;28;20042;-71
2023/04/11 08:55:55;;;;;;;9.00;1.50;;;11.40;99.90;;;;;;5073589;28;20439;-80
2023/04/11 08:58:22;;;;;;;9.70;1.23;;;11.10;99.90;;;;;;5072699;28;20025;-69
2023/04/11 09:00:47;;;;;;;11.23;1.58;;;10.70;99.90;;;;;;5073972;28;20031;-73
2023/04/11 09:03:15;;;;;;;8.77;1.30;;;11.00;99.90;;;;;;5072511;28;20032;-75
2023/04/11 09:05:45;;;;;;;10.70;1.50;;;11.50;99.90;;;;;;5074081;28;20048;-66
2023/04/11 09:08:12;;;;;;;10.73;1.60;;;12.20;99.90;;;;;;5073692;28;20027;-76
2023/04/11 09:10:40;;;;;;;5.75;1.52;;;12.60;99.90;;;;;;5072699;28;20431;-64
2023/04/11 09:13:26;;;;;;;11.13;1.90;;;12.80;99.90;;;;;;5074029;28;20032;-80
2023/04/11 09:16:05;;;;;;;7.05;1.05;;;13.10;99.90;;;;;;5061896;28;20308;-64
2023/04/11 09:18:33;;;;;;;7.50;1.17;;;13.10;99.90;;;;;;5073633;28;20426;-65
2023/04/11 09:21:00;;;;;;;9.38;1.83;;;12.60;99.90;;;;;;5074029;28;20381;-76
2023/04/11 09:23:26;;;;;;;8.02;1.05;;;12.10;99.90;;;;;;5072683;28;20062;-64
2023/04/11 09:25:52;;;;;;;10.30;1.48;;;11.50;99.90;;;;;;5073363;28;20021;-64
2023/04/11 09:28:18;;;;;;;11.50;1.70;;;11.20;99.90;;;;;;5073760;28;20101;-64
2023/04/11 09:30:51;;;;;;;13.67;1.67;;;11.20;99.90;;;;;;5073753;28;20029;-63
2023/04/11 09:33:27;;;;;;;10.75;1.63;;;11.60;99.90;;;;;;5073778;28;20358;-63
2023/04/11 09:35:54;;;;;;;6.70;1.13;;;12.30;99.90;;;;;;5077005;28;20055;-64
2023/04/11 09:38:35;;;;;;;9.10;1.23;;;12.70;99.90;;;;;;5077500;28;20481;-63
2023/04/11 09:41:02;;;;;;;6.47;1.50;;;12.70;99.90;;;;;;5076852;28;20095;-78
2023/04/11 09:43:47;;;;;;;9.38;1.13;;;12.60;99.90;;;;;;5077463;28;20365;-66
2023/04/11 09:46:17;;;;;;;4.72;1.02;;;12.60;99.90;;;;;;5077003;28;20036;-63
2023/04/11 09:48:43;;;;;;;4.78;0.82;;;12.70;99.90;;;;;;5077478;28;20025;-63
2023/04/11 09:51:09;;;;;;;6.57;1.38;;;12.80;99.90;;;;;;5076858;28;20316;-65
2023/04/11 09:53:36;;;;;;;8.00;1.38;;;13.00;99.90;;;;;;5077356;28;20028;-63
2023/04/11 09:56:03;;;;;;;7.78;1.20;;;13.20;99.90;;;;;;5076004;28;20399;-76
2023/04/11 09:58:30;;;;;;;;;;;13.20;99.90;;;;;;5077362;28;20081;-64
2023/04/11 10:00:58;;;;;;;13.30;1.42;;;13.10;99.90;;;;;;5077113;28;19943;-63
2023/04/11 10:03:25;;;;;;;12.82;1.73;;;12.90;99.90;;;;;;5076821;28;20028;-64
2023/04/11 10:05:53;;;;;;;6.53;0.93;;;13.10;99.90;;;;;;5077280;28;20107;-63
2023/04/11 10:08:31;;;;;;;5.13;1.35;;;12.90;99.90;;;;;;5076521;28;20327;-63
2023/04/11 10:11:07;;;;;;;14.70;1.65;;;12.70;99.90;;;;;;5076750;28;20351;-64
2023/04/11 10:13:39;;;;;;;7.15;1.17;;;12.40;99.90;;;;;;5076835;28;20024;-64
2023/04/11 10:16:13;;;;;;;5.30;1.20;;;12.50;99.90;;;;;;5076627;28;20067;-76
2023/04/11 10:18:54;;;;;;;7.15;1.20;;;12.40;99.90;;;;;;5075623;28;20031;-63
2023/04/11 10:21:29;;;;;;;8.63;1.60;;;12.30;99.90;;;;;;5076664;28;20036;-64
2023/04/11 10:24:14;;;;;;;6.10;1.17;;;12.40;99.90;;;;;;5076283;28;20074;-64
2023/04/11 10:26:52;;;;;;;10.98;1.20;;;12.90;99.90;;;;;;5076457;28;20451;-63
2023/04/11 10:29:27;;;;;;;3.55;1.00;;;13.10;99.90;;;;;;5076063;28;20049;-64
2023/04/11 10:32:23;;;;;;;5.85;1.15;;;13.10;99.90;;;;;;5076438;28;20435;-63
2023/04/11 10:34:49;;;;;;;6.85;1.17;;;13.30;99.90;;;;;;5075948;28;20077;-64
2023/04/11 10:37:15;;;;;;;9.60;1.17;;;13.20;99.90;;;;;;5076443;28;20024;-64
2023/04/11 10:39:51;;;;;;;6.97;1.30;;;13.30;99.90;;;;;;5075101;28;20024;-64
2023/04/11 10:42:26;;;;;;;11.40;1.38;;;13.40;99.90;;;;;;5076384;28;20614;-78
2023/04/11 10:45:23;;;;;;;5.28;1.30;;;13.30;99.90;;;;;;5076007;28;20024;-64
2023/04/11 10:48:12;;;;;;;5.38;1.30;;;13.60;99.90;;;;;;5075740;28;20485;-64
2023/04/11 10:50:41;;;;;;;11.43;1.70;;;13.70;99.90;;;;;;5076149;28;20058;-64
2023/04/11 10:53:35;;;;;;;6.20;1.65;;;13.70;99.90;;;;;;5075740;28;20021;-77
2023/04/11 10:56:01;;;;;;;7.13;1.60;;;13.40;99.90;;;;;;5076127;28;20301;-76
2023/04/11 10:58:38;;;;;;;11.68;1.10;;;13.30;99.90;;;;;;5075667;28;20019;-78
2023/04/11 11:01:18;;;;;;;5.32;1.25;;;12.90;99.90;;;;;;5075986;28;20033;-79
2023/04/11 11:03:51;;;;;;;2.90;0.80;;;12.80;99.90;;;;;;5075942;28;20036;-77
2023/04/11 11:06:18;;;;;;;5.55;0.85;;;13.10;99.90;;;;;;5075804;28;20056;-65
2023/04/11 11:08:45;;;;;;;6.43;1.30;;;13.30;99.90;;;;;;5074958;28;20107;-63
2023/04/11 11:11:13;;;;;;;4.00;1.20;;;13.40;99.90;;;;;;5075395;28;20029;-64
2023/04/11 11:13:54;;;;;;;10.98;1.23;;;13.50;99.90;;;;;;5076596;28;20052;-63
2023/04/11 11:16:22;;;;;;;5.18;0.82;;;13.30;99.90;;;;;;5076227;28;20055;-63
2023/04/11 11:18:53;;;;;;;3.20;0.98;;;13.20;99.90;;;;;;5075784;28;20024;-63
2023/04/11 11:21:24;;;;;;;4.75;0.70;;;13.00;99.90;;;;;;5076182;28;20045;-63
2023/04/11 11:24:00;;;;;;;6.43;0.90;;;12.90;99.90;;;;;;5074918;28;20044;-63
2023/04/11 11:26:41;;;;;;;8.50;1.30;;;13.20;99.90;;;;;;5075896;28;20031;-63
2023/04/11 11:29:08;;;;;;;5.82;1.30;;;13.40;99.90;;;;;;5075671;28;20056;-63
2023/04/11 11:31:40;;;;;;;4.93;1.17;;;13.70;99.90;;;;;;5075670;28;20036;-64
2023/04/11 11:34:07;;;;;;;3.55;1.00;;;14.00;99.90;;;;;;5076107;28;20370;-76
2023/04/11 11:36:43;;;;;;;8.77;1.75;;;14.00;99.90;;;;;;5075533;28;20020;-64
2023/04/11 11:39:11;;;;;;;11.98;1.50;;;14.10;99.90;;;;;;5076000;28;20023;-64
2023/04/11 11:41:37;;;;;;;4.57;1.15;;;14.10;99.90;;;;;;5075320;28;20027;-64
2023/04/11 11:44:05;;;;;;;;;;;13.90;99.90;;;;;;5076214;28;20366;-64
2023/04/11 11:46:32;;;;;;;9.45;1.20;;;14.10;99.90;;;;;;5075364;28;19904;-64
2023/04/11 11:49:07;;;;;;;10.68;1.63;;;14.00;99.90;;;;;;5076086;28;20067;-73
2023/04/11 11:51:40;;;;;;;11.02;1.60;;;14.10;99.90;;;;;;5074978;28;20025;-63
2023/04/11 11:54:08;;;;;;;2.00;0.80;;;14.10;99.90;;;;;;5075430;28;20028;-76
2023/04/11 11:56:37;;;;;;;11.13;1.45;;;14.00;99.90;;;;;;5075435;28;20052;-64
2023/04/11 11:59:03;;;;;;;11.52;1.17;;;14.00;99.90;;;;;;5074761;28;20035;-64
2023/04/11 12:01:36;;;;;;;7.00;1.42;;;14.00;99.90;;;;;;5075285;28;20013;-64
2023/04/11 12:04:05;;;;;;;8.93;1.58;;;14.00;99.90;;;;;;5075773;28;20025;-78
2023/04/11 12:06:32;;;;;;;10.43;1.35;;;14.10;99.90;;;;;;5074867;28;20357;-65
2023/04/11 12:09:11;;;;;;;7.45;1.63;;;14.20;99.90;;;;;;5075431;28;20449;-64
2023/04/11 12:11:41;;;;;;;6.00;0.85;;;14.20;99.90;;;;;;5075045;28;20123;-64
2023/04/11 12:14:07;;;;;;;4.55;1.20;;;14.20;99.90;;;;;;5074290;28;20028;-75
2023/04/11 12:16:35;;;;;;;11.05;1.30;;;14.20;99.90;;;;;;5075352;28;20415;-64
2023/04/11 12:19:02;;;;;;;8.02;1.58;;;14.20;99.90;;;;;;5074889;28;20412;-76
2023/04/11 12:21:29;;;;;;;6.45;1.80;;;14.20;99.90;;;;;;5075462;28;20354;-63
2023/04/11 12:23:55;;;;;;;8.82;1.27;;;14.10;99.90;;;;;;5074925;28;20096;-64
2023/04/11 12:26:21;;;;;;;6.73;1.30;;;14.10;99.90;;;;;;5073982;28;20108;-64
2023/04/11 12:28:48;;;;;;;6.82;0.95;;;14.20;99.90;;;;;;5074987;28;20052;-64
2023/04/11 12:31:14;;;;;;;5.95;1.52;;;14.20;99.90;;;;;;5074799;28;20034;-78
2023/04/11 12:33:40;;;;;;;6.95;0.85;;;14.10;99.90;;;;;;5075241;28;20056;-63
2023/04/11 12:36:06;;;;;;;7.27;1.27;;;14.10;99.90;;;;;;5074954;28;20059;-77
2023/04/11 12:38:32;;;;;;;10.32;1.38;;;14.10;99.90;;;;;;5075150;28;20024;-64
2023/04/11 12:40:59;;;;;;;5.28;1.20;;;13.90;99.90;;;;;;5074563;28;20412;-64
2023/04/11 12:43:24;;;;;;;6.45;1.48;;;13.90;99.90;;;;;;5075090;28;20024;-65
2023/04/11 12:45:50;;;;;;;9.47;1.43;;;13.80;99.90;;;;;;5074832;28;20389;-65
2023/04/11 12:48:16;;;;;;;4.33;1.10;;;13.80;99.90;;;;;;5074692;28;20039;-65
2023/04/11 12:50:42;;;;;;;11.00;1.77;;;13.90;99.90;;;;;;5074880;28;20028;-64
2023/04/11 12:53:07;;;;;;;10.87;1.60;;;13.90;99.90;;;;;;5073612;28;20106;-77